sensor_id;sensor_type;location;lat;lon;timestamp;P1;durP1;ratioP1;P2;durP2;ratioP2
17854;SDS011;9053;53.358;6.382;2022-11-18T00:01:33;18.67;;;14.30;;
17854;SDS011;9053;53.358;6.382;2022-11-18T00:04:03;19.40;;;13.07;;
17854;SDS011;9053;53.358;6.382;2022-11-18T00:06:33;21.70;;;14.43;;
17854;SDS011;9053;53.358;6.382;2022-11-18T00:09:03;21.37;;;13.70;;
17854;SDS011;9053;53.358;6.382;2022-11-18T00:11:33;18.73;;;13.53;;
17854;SDS011;9053;53.358;6.382;2022-11-18T00:14:19;20.80;;;14.83;;
17854;SDS011;9053;53.358;6.382;2022-11-18T00:16:53;20.07;;;14.47;;
17854;SDS011;9053;53.358;6.382;2022-11-18T00:19:25;19.13;;;13.47;;
17854;SDS011;9053;53.358;6.382;2022-11-18T00:21:56;17.73;;;12.70;;
17854;SDS011;9053;53.358;6.382;2022-11-18T00:24:26;18.43;;;13.60;;
17854;SDS011;9053;53.358;6.382;2022-11-18T00:26:56;18.90;;;13.37;;
17854;SDS011;9053;53.358;6.382;2022-11-18T00:29:29;17.37;;;12.73;;
17854;SDS011;9053;53.358;6.382;2022-11-18T00:31:59;16.43;;;12.23;;
17854;SDS011;9053;53.358;6.382;2022-11-18T00:34:28;18.23;;;13.33;;
17854;SDS011;9053;53.358;6.382;2022-11-18T00:36:58;17.63;;;12.60;;
17854;SDS011;9053;53.358;6.382;2022-11-18T00:39:28;18.10;;;12.83;;
17854;SDS011;9053;53.358;6.382;2022-11-18T00:41:57;18.43;;;12.97;;
17854;SDS011;9053;53.358;6.382;2022-11-18T00:44:42;16.77;;;12.23;;
17854;SDS011;9053;53.358;6.382;2022-11-18T00:47:12;16.43;;;11.77;;
17854;SDS011;9053;53.358;6.382;2022-11-18T00:49:42;17.60;;;12.07;;
17854;SDS011;9053;53.358;6.382;2022-11-18T00:52:11;19.40;;;13.40;;
17854;SDS011;9053;53.358;6.382;2022-11-18T00:54:41;19.13;;;12.60;;
17854;SDS011;9053;53.358;6.382;2022-11-18T00:57:11;17.07;;;12.50;;
17854;SDS011;9053;53.358;6.382;2022-11-18T00:59:43;17.53;;;11.87;;
17854;SDS011;9053;53.358;6.382;2022-11-18T01:02:13;18.00;;;12.50;;
17854;SDS011;9053;53.358;6.382;2022-11-18T01:04:43;19.13;;;12.23;;
17854;SDS011;9053;53.358;6.382;2022-11-18T01:07:12;17.40;;;12.43;;
17854;SDS011;9053;53.358;6.382;2022-11-18T01:09:42;19.27;;;13.67;;
17854;SDS011;9053;53.358;6.382;2022-11-18T01:12:12;18.80;;;13.23;;
17854;SDS011;9053;53.358;6.382;2022-11-18T01:14:56;16.97;;;12.80;;
17854;SDS011;9053;53.358;6.382;2022-11-18T01:17:28;20.43;;;13.90;;
17854;SDS011;9053;53.358;6.382;2022-11-18T01:19:58;18.40;;;13.63;;
17854;SDS011;9053;53.358;6.382;2022-11-18T01:22:28;21.93;;;14.30;;
17854;SDS011;9053;53.358;6.382;2022-11-18T01:24:58;17.93;;;12.53;;
17854;SDS011;9053;53.358;6.382;2022-11-18T01:27:27;19.73;;;13.17;;
17854;SDS011;9053;53.358;6.382;2022-11-18T01:30:00;20.63;;;14.57;;
17854;SDS011;9053;53.358;6.382;2022-11-18T01:32:29;22.97;;;15.83;;
17854;SDS011;9053;53.358;6.382;2022-11-18T01:34:59;24.87;;;14.97;;
17854;SDS011;9053;53.358;6.382;2022-11-18T01:37:29;22.57;;;14.60;;
17854;SDS011;9053;53.358;6.382;2022-11-18T01:39:59;21.57;;;14.53;;
17854;SDS011;9053;53.358;6.382;2022-11-18T01:42:28;23.03;;;15.50;;
17854;SDS011;9053;53.358;6.382;2022-11-18T01:45:02;23.50;;;15.27;;
17854;SDS011;9053;53.358;6.382;2022-11-18T01:47:40;25.87;;;15.87;;
17854;SDS011;9053;53.358;6.382;2022-11-18T01:50:13;23.13;;;15.40;;
17854;SDS011;9053;53.358;6.382;2022-11-18T01:52:44;24.50;;;14.87;;
17854;SDS011;9053;53.358;6.382;2022-11-18T01:55:18;25.60;;;15.83;;
17854;SDS011;9053;53.358;6.382;2022-11-18T01:57:52;22.90;;;15.60;;
17854;SDS011;9053;53.358;6.382;2022-11-18T02:00:29;27.37;;;16.93;;
17854;SDS011;9053;53.358;6.382;2022-11-18T02:02:59;27.67;;;16.37;;
17854;SDS011;9053;53.358;6.382;2022-11-18T02:05:30;32.53;;;19.17;;
17854;SDS011;9053;53.358;6.382;2022-11-18T02:08:02;30.13;;;17.97;;
17854;SDS011;9053;53.358;6.382;2022-11-18T02:10:34;28.70;;;17.87;;
17854;SDS011;9053;53.358;6.382;2022-11-18T02:13:04;29.20;;;17.83;;
17854;SDS011;9053;53.358;6.382;2022-11-18T02:15:41;28.13;;;17.83;;
17854;SDS011;9053;53.358;6.382;2022-11-18T02:18:18;25.10;;;16.13;;
17854;SDS011;9053;53.358;6.382;2022-11-18T02:20:59;30.37;;;18.33;;
17854;SDS011;9053;53.358;6.382;2022-11-18T02:29:51;27.13;;;17.30;;
17854;SDS011;9053;53.358;6.382;2022-11-18T02:32:25;28.60;;;17.20;;
17854;SDS011;9053;53.358;6.382;2022-11-18T02:35:01;29.07;;;16.83;;
17854;SDS011;9053;53.358;6.382;2022-11-18T02:37:38;28.17;;;17.57;;
17854;SDS011;9053;53.358;6.382;2022-11-18T02:40:13;25.93;;;17.17;;
17854;SDS011;9053;53.358;6.382;2022-11-18T02:42:48;30.27;;;18.27;;
17854;SDS011;9053;53.358;6.382;2022-11-18T02:45:25;31.73;;;17.87;;
17854;SDS011;9053;53.358;6.382;2022-11-18T02:47:58;28.23;;;17.03;;
17854;SDS011;9053;53.358;6.382;2022-11-18T02:50:32;31.97;;;18.13;;
17854;SDS011;9053;53.358;6.382;2022-11-18T02:53:04;29.47;;;18.30;;
17854;SDS011;9053;53.358;6.382;2022-11-18T02:55:36;31.83;;;18.67;;
17854;SDS011;9053;53.358;6.382;2022-11-18T02:58:09;30.33;;;18.67;;
17854;SDS011;9053;53.358;6.382;2022-11-18T03:00:43;30.93;;;18.63;;
17854;SDS011;9053;53.358;6.382;2022-11-18T03:03:23;33.30;;;18.67;;
17854;SDS011;9053;53.358;6.382;2022-11-18T03:05:58;30.70;;;18.33;;
17854;SDS011;9053;53.358;6.382;2022-11-18T03:08:36;34.20;;;18.17;;
17854;SDS011;9053;53.358;6.382;2022-11-18T03:11:10;33.50;;;18.20;;
17854;SDS011;9053;53.358;6.382;2022-11-18T03:13:48;34.87;;;17.77;;
17854;SDS011;9053;53.358;6.382;2022-11-18T03:16:43;28.93;;;17.50;;
17854;SDS011;9053;53.358;6.382;2022-11-18T03:19:21;35.17;;;17.77;;
17854;SDS011;9053;53.358;6.382;2022-11-18T03:21:58;31.70;;;18.13;;
17854;SDS011;9053;53.358;6.382;2022-11-18T03:24:36;28.20;;;16.60;;
17854;SDS011;9053;53.358;6.382;2022-11-18T03:27:10;30.87;;;17.20;;
17854;SDS011;9053;53.358;6.382;2022-11-18T03:29:47;30.70;;;16.90;;
17854;SDS011;9053;53.358;6.382;2022-11-18T03:32:25;29.80;;;15.87;;
17854;SDS011;9053;53.358;6.382;2022-11-18T03:34:58;26.93;;;15.90;;
17854;SDS011;9053;53.358;6.382;2022-11-18T03:37:31;25.80;;;15.77;;
17854;SDS011;9053;53.358;6.382;2022-11-18T03:40:11;29.80;;;16.30;;
17854;SDS011;9053;53.358;6.382;2022-11-18T03:42:45;28.60;;;15.13;;
17854;SDS011;9053;53.358;6.382;2022-11-18T03:45:18;26.97;;;15.63;;
17854;SDS011;9053;53.358;6.382;2022-11-18T03:47:53;25.33;;;14.87;;
17854;SDS011;9053;53.358;6.382;2022-11-18T03:50:29;26.87;;;14.87;;
17854;SDS011;9053;53.358;6.382;2022-11-18T03:53:02;24.53;;;14.93;;
17854;SDS011;9053;53.358;6.382;2022-11-18T03:55:35;25.13;;;15.50;;
17854;SDS011;9053;53.358;6.382;2022-11-18T03:58:09;22.57;;;14.60;;
17854;SDS011;9053;53.358;6.382;2022-11-18T04:00:44;25.50;;;15.40;;
17854;SDS011;9053;53.358;6.382;2022-11-18T04:03:20;29.00;;;16.37;;
17854;SDS011;9053;53.358;6.382;2022-11-18T04:05:51;26.07;;;15.07;;
17854;SDS011;9053;53.358;6.382;2022-11-18T04:08:31;25.47;;;14.50;;
17854;SDS011;9053;53.358;6.382;2022-11-18T04:11:07;28.47;;;14.77;;
17854;SDS011;9053;53.358;6.382;2022-11-18T04:14:02;24.73;;;14.10;;
17854;SDS011;9053;53.358;6.382;2022-11-18T04:16:37;25.03;;;14.70;;
17854;SDS011;9053;53.358;6.382;2022-11-18T04:19:11;25.07;;;15.00;;
17854;SDS011;9053;53.358;6.382;2022-11-18T04:21:41;24.43;;;15.03;;
17854;SDS011;9053;53.358;6.382;2022-11-18T04:24:10;24.23;;;14.60;;
17854;SDS011;9053;53.358;6.382;2022-11-18T04:26:40;25.70;;;14.43;;
17854;SDS011;9053;53.358;6.382;2022-11-18T04:29:10;24.90;;;14.63;;
17854;SDS011;9053;53.358;6.382;2022-11-18T04:31:40;22.63;;;14.33;;
17854;SDS011;9053;53.358;6.382;2022-11-18T04:34:12;24.80;;;14.87;;
17854;SDS011;9053;53.358;6.382;2022-11-18T04:36:42;22.80;;;13.33;;
17854;SDS011;9053;53.358;6.382;2022-11-18T04:39:12;26.30;;;14.13;;
17854;SDS011;9053;53.358;6.382;2022-11-18T04:41:44;23.93;;;13.77;;
17854;SDS011;9053;53.358;6.382;2022-11-18T04:44:26;24.00;;;14.00;;
17854;SDS011;9053;53.358;6.382;2022-11-18T04:46:57;21.90;;;13.37;;
17854;SDS011;9053;53.358;6.382;2022-11-18T04:49:31;22.77;;;14.17;;
17854;SDS011;9053;53.358;6.382;2022-11-18T04:52:02;25.00;;;13.20;;
17854;SDS011;9053;53.358;6.382;2022-11-18T04:54:33;20.60;;;13.57;;
17854;SDS011;9053;53.358;6.382;2022-11-18T04:57:02;23.93;;;13.97;;
17854;SDS011;9053;53.358;6.382;2022-11-18T04:59:32;21.43;;;13.53;;
17854;SDS011;9053;53.358;6.382;2022-11-18T05:02:02;22.33;;;13.43;;
17854;SDS011;9053;53.358;6.382;2022-11-18T05:04:34;24.03;;;13.13;;
17854;SDS011;9053;53.358;6.382;2022-11-18T05:07:05;23.43;;;13.10;;
17854;SDS011;9053;53.358;6.382;2022-11-18T05:09:35;24.33;;;13.40;;
17854;SDS011;9053;53.358;6.382;2022-11-18T05:12:05;21.27;;;13.13;;
17854;SDS011;9053;53.358;6.382;2022-11-18T05:15:00;23.43;;;13.20;;
17854;SDS011;9053;53.358;6.382;2022-11-18T05:17:30;23.77;;;13.07;;
17854;SDS011;9053;53.358;6.382;2022-11-18T05:20:05;22.70;;;13.03;;
17854;SDS011;9053;53.358;6.382;2022-11-18T05:22:36;24.57;;;12.97;;
17854;SDS011;9053;53.358;6.382;2022-11-18T05:25:06;21.93;;;13.40;;
17854;SDS011;9053;53.358;6.382;2022-11-18T05:27:37;23.20;;;13.13;;
17854;SDS011;9053;53.358;6.382;2022-11-18T05:30:08;21.77;;;12.83;;
17854;SDS011;9053;53.358;6.382;2022-11-18T05:32:38;23.43;;;13.47;;
17854;SDS011;9053;53.358;6.382;2022-11-18T05:35:11;22.17;;;13.20;;
17854;SDS011;9053;53.358;6.382;2022-11-18T05:37:40;22.40;;;13.27;;
17854;SDS011;9053;53.358;6.382;2022-11-18T05:40:10;22.07;;;12.73;;
17854;SDS011;9053;53.358;6.382;2022-11-18T05:42:40;21.63;;;13.17;;
17854;SDS011;9053;53.358;6.382;2022-11-18T05:45:22;22.63;;;12.97;;
17854;SDS011;9053;53.358;6.382;2022-11-18T05:47:52;21.67;;;13.10;;
17854;SDS011;9053;53.358;6.382;2022-11-18T05:50:34;23.67;;;13.27;;
17854;SDS011;9053;53.358;6.382;2022-11-18T05:53:04;22.43;;;13.13;;
17854;SDS011;9053;53.358;6.382;2022-11-18T05:55:35;22.70;;;12.60;;
17854;SDS011;9053;53.358;6.382;2022-11-18T05:58:08;24.03;;;13.50;;
17854;SDS011;9053;53.358;6.382;2022-11-18T06:00:38;24.83;;;13.43;;
17854;SDS011;9053;53.358;6.382;2022-11-18T06:03:10;22.80;;;13.00;;
17854;SDS011;9053;53.358;6.382;2022-11-18T06:05:48;25.10;;;13.33;;
17854;SDS011;9053;53.358;6.382;2022-11-18T06:08:21;26.40;;;13.87;;
17854;SDS011;9053;53.358;6.382;2022-11-18T06:10:57;26.17;;;13.73;;
17854;SDS011;9053;53.358;6.382;2022-11-18T06:13:28;23.87;;;12.60;;
17854;SDS011;9053;53.358;6.382;2022-11-18T06:16:05;29.17;;;14.03;;
17854;SDS011;9053;53.358;6.382;2022-11-18T06:18:35;25.57;;;13.20;;
17854;SDS011;9053;53.358;6.382;2022-11-18T06:21:08;28.30;;;14.57;;
17854;SDS011;9053;53.358;6.382;2022-11-18T06:23:38;26.43;;;13.03;;
17854;SDS011;9053;53.358;6.382;2022-11-18T06:26:09;27.90;;;14.03;;
17854;SDS011;9053;53.358;6.382;2022-11-18T06:28:42;27.13;;;14.87;;
17854;SDS011;9053;53.358;6.382;2022-11-18T06:31:13;28.00;;;13.83;;
17854;SDS011;9053;53.358;6.382;2022-11-18T06:33:44;27.80;;;14.30;;
17854;SDS011;9053;53.358;6.382;2022-11-18T06:36:16;26.43;;;14.60;;
17854;SDS011;9053;53.358;6.382;2022-11-18T06:38:46;31.60;;;14.37;;
17854;SDS011;9053;53.358;6.382;2022-11-18T06:41:16;28.43;;;14.87;;
17854;SDS011;9053;53.358;6.382;2022-11-18T06:43:45;29.77;;;14.47;;
17854;SDS011;9053;53.358;6.382;2022-11-18T06:46:13;29.97;;;14.13;;
17854;SDS011;9053;53.358;6.382;2022-11-18T06:48:57;29.90;;;15.00;;
17854;SDS011;9053;53.358;6.382;2022-11-18T06:51:30;32.10;;;16.13;;
17854;SDS011;9053;53.358;6.382;2022-11-18T06:53:59;32.23;;;15.47;;
17854;SDS011;9053;53.358;6.382;2022-11-18T06:56:36;34.17;;;15.07;;
17854;SDS011;9053;53.358;6.382;2022-11-18T06:59:05;29.40;;;15.00;;
17854;SDS011;9053;53.358;6.382;2022-11-18T07:01:36;29.83;;;14.53;;
17854;SDS011;9053;53.358;6.382;2022-11-18T07:04:06;31.57;;;14.70;;
17854;SDS011;9053;53.358;6.382;2022-11-18T07:06:39;29.90;;;14.70;;
17854;SDS011;9053;53.358;6.382;2022-11-18T07:09:08;29.40;;;14.73;;
17854;SDS011;9053;53.358;6.382;2022-11-18T07:11:38;26.47;;;14.40;;
17854;SDS011;9053;53.358;6.382;2022-11-18T07:14:08;29.23;;;15.23;;
17854;SDS011;9053;53.358;6.382;2022-11-18T07:16:38;32.40;;;15.17;;
17854;SDS011;9053;53.358;6.382;2022-11-18T07:19:08;35.83;;;15.30;;
17854;SDS011;9053;53.358;6.382;2022-11-18T07:21:42;36.77;;;15.77;;
17854;SDS011;9053;53.358;6.382;2022-11-18T07:24:13;29.47;;;14.33;;
17854;SDS011;9053;53.358;6.382;2022-11-18T07:26:44;33.03;;;14.83;;
17854;SDS011;9053;53.358;6.382;2022-11-18T07:29:14;33.77;;;14.97;;
17854;SDS011;9053;53.358;6.382;2022-11-18T07:31:44;24.93;;;12.80;;
17854;SDS011;9053;53.358;6.382;2022-11-18T07:34:14;31.30;;;14.23;;
17854;SDS011;9053;53.358;6.382;2022-11-18T07:36:47;31.67;;;15.83;;
17854;SDS011;9053;53.358;6.382;2022-11-18T07:39:16;35.23;;;15.70;;
17854;SDS011;9053;53.358;6.382;2022-11-18T07:41:47;30.23;;;14.83;;
17854;SDS011;9053;53.358;6.382;2022-11-18T07:44:16;34.67;;;15.00;;
17854;SDS011;9053;53.358;6.382;2022-11-18T07:46:46;30.00;;;14.90;;
17854;SDS011;9053;53.358;6.382;2022-11-18T07:49:16;36.07;;;15.17;;
17854;SDS011;9053;53.358;6.382;2022-11-18T07:51:48;35.40;;;14.50;;
17854;SDS011;9053;53.358;6.382;2022-11-18T07:54:19;30.63;;;14.87;;
17854;SDS011;9053;53.358;6.382;2022-11-18T07:56:48;30.23;;;14.60;;
17854;SDS011;9053;53.358;6.382;2022-11-18T07:59:18;31.27;;;15.23;;
17854;SDS011;9053;53.358;6.382;2022-11-18T08:01:48;28.03;;;13.67;;
17854;SDS011;9053;53.358;6.382;2022-11-18T08:04:18;32.17;;;14.67;;
17854;SDS011;9053;53.358;6.382;2022-11-18T08:06:50;32.13;;;14.97;;
17854;SDS011;9053;53.358;6.382;2022-11-18T08:09:20;30.37;;;15.17;;
17854;SDS011;9053;53.358;6.382;2022-11-18T08:11:50;28.53;;;14.27;;
17854;SDS011;9053;53.358;6.382;2022-11-18T08:14:19;27.00;;;14.43;;
17854;SDS011;9053;53.358;6.382;2022-11-18T08:16:49;28.70;;;14.17;;
17854;SDS011;9053;53.358;6.382;2022-11-18T08:19:19;28.87;;;14.30;;
17854;SDS011;9053;53.358;6.382;2022-11-18T08:21:52;28.73;;;13.37;;
17854;SDS011;9053;53.358;6.382;2022-11-18T08:24:21;27.80;;;13.93;;
17854;SDS011;9053;53.358;6.382;2022-11-18T08:26:51;27.60;;;13.37;;
17854;SDS011;9053;53.358;6.382;2022-11-18T08:29:21;28.07;;;13.90;;
17854;SDS011;9053;53.358;6.382;2022-11-18T08:31:51;25.77;;;13.70;;
17854;SDS011;9053;53.358;6.382;2022-11-18T08:34:21;23.43;;;12.77;;
17854;SDS011;9053;53.358;6.382;2022-11-18T08:36:53;22.63;;;12.87;;
17854;SDS011;9053;53.358;6.382;2022-11-18T08:39:24;31.03;;;13.43;;
17854;SDS011;9053;53.358;6.382;2022-11-18T08:41:56;22.50;;;11.77;;
17854;SDS011;9053;53.358;6.382;2022-11-18T08:44:26;24.60;;;12.73;;
17854;SDS011;9053;53.358;6.382;2022-11-18T08:46:58;20.83;;;12.47;;
17854;SDS011;9053;53.358;6.382;2022-11-18T08:49:28;20.83;;;12.37;;
17854;SDS011;9053;53.358;6.382;2022-11-18T08:52:00;23.10;;;13.40;;
17854;SDS011;9053;53.358;6.382;2022-11-18T08:54:30;25.17;;;12.40;;
17854;SDS011;9053;53.358;6.382;2022-11-18T08:57:00;23.47;;;12.23;;
17854;SDS011;9053;53.358;6.382;2022-11-18T08:59:30;26.80;;;13.00;;
17854;SDS011;9053;53.358;6.382;2022-11-18T09:02:00;22.23;;;12.37;;
17854;SDS011;9053;53.358;6.382;2022-11-18T09:04:30;24.77;;;13.73;;
17854;SDS011;9053;53.358;6.382;2022-11-18T09:07:03;22.70;;;12.20;;
17854;SDS011;9053;53.358;6.382;2022-11-18T09:09:33;23.77;;;12.33;;
17854;SDS011;9053;53.358;6.382;2022-11-18T09:12:02;21.07;;;12.13;;
17854;SDS011;9053;53.358;6.382;2022-11-18T09:14:33;22.80;;;12.87;;
17854;SDS011;9053;53.358;6.382;2022-11-18T09:17:25;24.97;;;12.30;;
17854;SDS011;9053;53.358;6.382;2022-11-18T09:20:05;22.47;;;12.90;;
17854;SDS011;9053;53.358;6.382;2022-11-18T09:22:53;21.57;;;12.00;;
17854;SDS011;9053;53.358;6.382;2022-11-18T09:25:22;23.77;;;12.40;;
17854;SDS011;9053;53.358;6.382;2022-11-18T09:27:52;21.07;;;12.87;;
17854;SDS011;9053;53.358;6.382;2022-11-18T09:30:22;21.17;;;11.60;;
17854;SDS011;9053;53.358;6.382;2022-11-18T09:33:08;23.07;;;12.83;;
17854;SDS011;9053;53.358;6.382;2022-11-18T09:35:44;23.57;;;12.57;;
17854;SDS011;9053;53.358;6.382;2022-11-18T09:38:17;24.73;;;12.80;;
17854;SDS011;9053;53.358;6.382;2022-11-18T09:40:48;23.57;;;12.83;;
17854;SDS011;9053;53.358;6.382;2022-11-18T09:43:26;23.77;;;13.30;;
17854;SDS011;9053;53.358;6.382;2022-11-18T09:46:05;24.07;;;13.03;;
17854;SDS011;9053;53.358;6.382;2022-11-18T09:48:47;25.47;;;13.60;;
17854;SDS011;9053;53.358;6.382;2022-11-18T09:51:30;27.77;;;13.23;;
17854;SDS011;9053;53.358;6.382;2022-11-18T09:54:10;26.27;;;13.43;;
17854;SDS011;9053;53.358;6.382;2022-11-18T09:56:46;23.57;;;12.63;;
17854;SDS011;9053;53.358;6.382;2022-11-18T09:59:17;26.93;;;14.30;;
17854;SDS011;9053;53.358;6.382;2022-11-18T10:01:49;28.30;;;14.70;;
17854;SDS011;9053;53.358;6.382;2022-11-18T10:04:21;26.60;;;14.90;;
17854;SDS011;9053;53.358;6.382;2022-11-18T10:06:51;31.60;;;14.83;;
17854;SDS011;9053;53.358;6.382;2022-11-18T10:09:29;28.97;;;13.93;;
17854;SDS011;9053;53.358;6.382;2022-11-18T10:12:11;27.47;;;12.80;;
17854;SDS011;9053;53.358;6.382;2022-11-18T10:14:53;22.37;;;10.93;;
17854;SDS011;9053;53.358;6.382;2022-11-18T10:17:34;26.40;;;12.93;;
17854;SDS011;9053;53.358;6.382;2022-11-18T10:20:20;21.77;;;11.77;;
17854;SDS011;9053;53.358;6.382;2022-11-18T10:23:02;24.23;;;11.63;;
17854;SDS011;9053;53.358;6.382;2022-11-18T10:25:42;24.50;;;13.10;;
17854;SDS011;9053;53.358;6.382;2022-11-18T10:28:14;24.10;;;13.17;;
17854;SDS011;9053;53.358;6.382;2022-11-18T10:30:46;27.40;;;13.07;;
17854;SDS011;9053;53.358;6.382;2022-11-18T10:33:17;25.50;;;12.73;;
17854;SDS011;9053;53.358;6.382;2022-11-18T10:38:40;25.57;;;12.43;;
17854;SDS011;9053;53.358;6.382;2022-11-18T10:41:18;26.23;;;13.00;;
17854;SDS011;9053;53.358;6.382;2022-11-18T10:43:50;26.27;;;13.07;;
17854;SDS011;9053;53.358;6.382;2022-11-18T10:46:22;28.73;;;13.67;;
17854;SDS011;9053;53.358;6.382;2022-11-18T10:49:13;26.63;;;13.07;;
17854;SDS011;9053;53.358;6.382;2022-11-18T10:51:45;24.07;;;12.43;;
17854;SDS011;9053;53.358;6.382;2022-11-18T10:54:16;30.80;;;14.33;;
17854;SDS011;9053;53.358;6.382;2022-11-18T10:56:52;27.40;;;14.43;;
17854;SDS011;9053;53.358;6.382;2022-11-18T10:59:27;32.07;;;15.47;;
17854;SDS011;9053;53.358;6.382;2022-11-18T11:02:00;32.90;;;15.70;;
17854;SDS011;9053;53.358;6.382;2022-11-18T11:04:35;30.87;;;14.70;;
17854;SDS011;9053;53.358;6.382;2022-11-18T11:07:13;31.33;;;16.03;;
17854;SDS011;9053;53.358;6.382;2022-11-18T11:09:45;35.53;;;15.93;;
17854;SDS011;9053;53.358;6.382;2022-11-18T11:12:31;32.63;;;14.90;;
17854;SDS011;9053;53.358;6.382;2022-11-18T11:15:03;30.30;;;15.00;;
17854;SDS011;9053;53.358;6.382;2022-11-18T11:17:35;29.60;;;14.30;;
17854;SDS011;9053;53.358;6.382;2022-11-18T11:20:09;28.30;;;14.80;;
17854;SDS011;9053;53.358;6.382;2022-11-18T11:22:47;25.73;;;13.40;;
17854;SDS011;9053;53.358;6.382;2022-11-18T11:25:18;27.40;;;14.27;;
17854;SDS011;9053;53.358;6.382;2022-11-18T11:28:18;29.07;;;14.50;;
17854;SDS011;9053;53.358;6.382;2022-11-18T11:31:03;27.23;;;14.10;;
17854;SDS011;9053;53.358;6.382;2022-11-18T11:33:40;26.27;;;13.73;;
17854;SDS011;9053;53.358;6.382;2022-11-18T11:36:19;29.50;;;14.60;;
17854;SDS011;9053;53.358;6.382;2022-11-18T11:38:59;30.00;;;14.83;;
17854;SDS011;9053;53.358;6.382;2022-11-18T11:41:38;31.63;;;15.33;;
17854;SDS011;9053;53.358;6.382;2022-11-18T11:44:25;32.30;;;20.07;;
17854;SDS011;9053;53.358;6.382;2022-11-18T11:47:08;28.20;;;14.63;;
17854;SDS011;9053;53.358;6.382;2022-11-18T11:50:00;29.67;;;15.87;;
17854;SDS011;9053;53.358;6.382;2022-11-18T11:52:37;27.87;;;15.10;;
17854;SDS011;9053;53.358;6.382;2022-11-18T11:55:20;30.37;;;16.33;;
17854;SDS011;9053;53.358;6.382;2022-11-18T11:58:02;31.70;;;16.20;;
17854;SDS011;9053;53.358;6.382;2022-11-18T12:00:42;30.33;;;15.80;;
17854;SDS011;9053;53.358;6.382;2022-11-18T12:03:23;32.50;;;16.60;;
17854;SDS011;9053;53.358;6.382;2022-11-18T12:06:06;32.70;;;16.63;;
17854;SDS011;9053;53.358;6.382;2022-11-18T12:08:38;33.37;;;18.23;;
17854;SDS011;9053;53.358;6.382;2022-11-18T12:11:18;33.83;;;17.50;;
17854;SDS011;9053;53.358;6.382;2022-11-18T12:13:56;39.13;;;18.13;;
17854;SDS011;9053;53.358;6.382;2022-11-18T12:16:35;37.13;;;17.90;;
17854;SDS011;9053;53.358;6.382;2022-11-18T12:19:14;36.07;;;17.03;;
17854;SDS011;9053;53.358;6.382;2022-11-18T12:21:56;38.30;;;18.90;;
17854;SDS011;9053;53.358;6.382;2022-11-18T12:24:31;40.03;;;18.67;;
17854;SDS011;9053;53.358;6.382;2022-11-18T12:27:04;38.50;;;18.87;;
17854;SDS011;9053;53.358;6.382;2022-11-18T12:29:40;35.30;;;18.53;;
17854;SDS011;9053;53.358;6.382;2022-11-18T12:32:31;38.33;;;20.13;;
17854;SDS011;9053;53.358;6.382;2022-11-18T12:35:21;38.73;;;18.60;;
17854;SDS011;9053;53.358;6.382;2022-11-18T12:37:58;41.93;;;18.97;;
17854;SDS011;9053;53.358;6.382;2022-11-18T12:40:30;35.07;;;17.77;;
17854;SDS011;9053;53.358;6.382;2022-11-18T12:44:05;38.90;;;18.30;;
17854;SDS011;9053;53.358;6.382;2022-11-18T12:55:15;35.17;;;18.07;;
17854;SDS011;9053;53.358;6.382;2022-11-18T12:57:49;38.07;;;18.10;;
17854;SDS011;9053;53.358;6.382;2022-11-18T13:00:32;36.40;;;18.07;;
17854;SDS011;9053;53.358;6.382;2022-11-18T13:03:20;41.73;;;20.20;;
17854;SDS011;9053;53.358;6.382;2022-11-18T13:05:57;43.67;;;20.83;;
17854;SDS011;9053;53.358;6.382;2022-11-18T13:08:33;47.77;;;22.10;;
17854;SDS011;9053;53.358;6.382;2022-11-18T13:11:09;41.97;;;20.20;;
17854;SDS011;9053;53.358;6.382;2022-11-18T13:13:56;41.97;;;20.47;;
17854;SDS011;9053;53.358;6.382;2022-11-18T13:16:38;41.20;;;19.93;;
17854;SDS011;9053;53.358;6.382;2022-11-18T13:19:21;39.60;;;18.03;;
17854;SDS011;9053;53.358;6.382;2022-11-18T13:21:52;33.60;;;17.53;;
17854;SDS011;9053;53.358;6.382;2022-11-18T13:24:41;35.60;;;18.17;;
17854;SDS011;9053;53.358;6.382;2022-11-18T13:27:19;36.43;;;19.17;;
17854;SDS011;9053;53.358;6.382;2022-11-18T13:29:59;39.00;;;18.67;;
17854;SDS011;9053;53.358;6.382;2022-11-18T13:32:32;36.93;;;18.73;;
17854;SDS011;9053;53.358;6.382;2022-11-18T13:35:06;36.53;;;18.60;;
17854;SDS011;9053;53.358;6.382;2022-11-18T13:37:48;40.20;;;19.53;;
17854;SDS011;9053;53.358;6.382;2022-11-18T13:40:21;36.23;;;18.13;;
17854;SDS011;9053;53.358;6.382;2022-11-18T13:42:55;38.00;;;18.33;;
17854;SDS011;9053;53.358;6.382;2022-11-18T13:45:26;32.10;;;17.37;;
17854;SDS011;9053;53.358;6.382;2022-11-18T13:47:58;31.47;;;15.57;;
17854;SDS011;9053;53.358;6.382;2022-11-18T13:50:34;39.50;;;18.07;;
17854;SDS011;9053;53.358;6.382;2022-11-18T13:53:08;40.57;;;18.47;;
17854;SDS011;9053;53.358;6.382;2022-11-18T13:55:51;37.37;;;18.70;;
17854;SDS011;9053;53.358;6.382;2022-11-18T13:58:30;37.97;;;18.60;;
17854;SDS011;9053;53.358;6.382;2022-11-18T14:01:22;35.33;;;18.33;;
17854;SDS011;9053;53.358;6.382;2022-11-18T14:03:54;32.53;;;17.80;;
17854;SDS011;9053;53.358;6.382;2022-11-18T14:06:27;38.93;;;18.23;;
17854;SDS011;9053;53.358;6.382;2022-11-18T14:09:05;35.33;;;16.73;;
17854;SDS011;9053;53.358;6.382;2022-11-18T14:11:45;36.20;;;18.57;;
17854;SDS011;9053;53.358;6.382;2022-11-18T14:14:30;39.53;;;18.33;;
17854;SDS011;9053;53.358;6.382;2022-11-18T14:17:02;35.53;;;17.27;;
17854;SDS011;9053;53.358;6.382;2022-11-18T14:19:43;37.83;;;19.00;;
17854;SDS011;9053;53.358;6.382;2022-11-18T14:22:14;38.47;;;19.33;;
17854;SDS011;9053;53.358;6.382;2022-11-18T14:24:53;36.63;;;18.53;;
17854;SDS011;9053;53.358;6.382;2022-11-18T14:30:30;39.97;;;18.87;;
17854;SDS011;9053;53.358;6.382;2022-11-18T14:35:53;40.97;;;19.10;;
17854;SDS011;9053;53.358;6.382;2022-11-18T14:38:30;42.33;;;20.63;;
17854;SDS011;9053;53.358;6.382;2022-11-18T14:41:26;40.40;;;19.50;;
17854;SDS011;9053;53.358;6.382;2022-11-18T14:44:10;39.20;;;18.83;;
17854;SDS011;9053;53.358;6.382;2022-11-18T14:46:44;37.97;;;18.30;;
17854;SDS011;9053;53.358;6.382;2022-11-18T14:49:18;34.03;;;18.57;;
17854;SDS011;9053;53.358;6.382;2022-11-18T14:51:49;35.87;;;19.50;;
17854;SDS011;9053;53.358;6.382;2022-11-18T14:54:21;36.50;;;18.97;;
17854;SDS011;9053;53.358;6.382;2022-11-18T14:56:54;39.37;;;19.13;;
17854;SDS011;9053;53.358;6.382;2022-11-18T14:59:25;34.23;;;18.50;;
17854;SDS011;9053;53.358;6.382;2022-11-18T15:01:58;32.87;;;18.13;;
17854;SDS011;9053;53.358;6.382;2022-11-18T15:04:27;31.67;;;17.23;;
17854;SDS011;9053;53.358;6.382;2022-11-18T15:06:57;30.77;;;16.73;;
17854;SDS011;9053;53.358;6.382;2022-11-18T15:09:27;30.53;;;15.77;;
17854;SDS011;9053;53.358;6.382;2022-11-18T15:11:57;26.43;;;14.90;;
17854;SDS011;9053;53.358;6.382;2022-11-18T15:14:29;27.27;;;15.77;;
17854;SDS011;9053;53.358;6.382;2022-11-18T15:17:03;28.67;;;15.23;;
17854;SDS011;9053;53.358;6.382;2022-11-18T15:19:33;31.70;;;15.67;;
17854;SDS011;9053;53.358;6.382;2022-11-18T15:22:03;27.27;;;15.43;;
17854;SDS011;9053;53.358;6.382;2022-11-18T15:24:33;27.90;;;15.53;;
17854;SDS011;9053;53.358;6.382;2022-11-18T15:27:03;28.97;;;16.00;;
17854;SDS011;9053;53.358;6.382;2022-11-18T15:29:33;27.47;;;15.63;;
17854;SDS011;9053;53.358;6.382;2022-11-18T15:32:06;28.20;;;15.63;;
17854;SDS011;9053;53.358;6.382;2022-11-18T15:34:35;23.83;;;14.90;;
17854;SDS011;9053;53.358;6.382;2022-11-18T15:37:05;26.00;;;15.30;;
17854;SDS011;9053;53.358;6.382;2022-11-18T15:39:35;25.80;;;15.17;;